createdAt,value
2023-05-11T00:03:31.616Z,991.18
2023-05-11T00:08:35.668Z,991.17
2023-05-11T00:13:39.925Z,991.14
2023-05-11T00:18:44.071Z,991.06
2023-05-11T00:23:48.257Z,990.94
2023-05-11T00:28:52.389Z,990.88
2023-05-11T00:33:56.539Z,990.86
2023-05-11T00:39:00.685Z,990.81
2023-05-11T00:44:04.882Z,990.71
2023-05-11T00:49:08.974Z,990.56
2023-05-11T00:54:13.178Z,990.47
2023-05-11T00:59:17.367Z,990.40
2023-05-11T01:04:21.506Z,990.27
2023-05-11T01:09:25.630Z,990.22
2023-05-11T01:14:29.817Z,990.09
2023-05-11T01:19:33.972Z,990.01
2023-05-11T01:24:38.141Z,989.94
2023-05-11T01:29:42.290Z,989.89
2023-05-11T01:34:46.483Z,989.81
2023-05-11T01:39:50.597Z,989.74
2023-05-11T01:44:54.785Z,989.74
2023-05-11T01:49:58.954Z,989.70
2023-05-11T01:55:03.107Z,989.63
2023-05-11T02:00:07.266Z,989.76
2023-05-11T02:05:11.438Z,989.72
2023-05-11T02:10:15.662Z,989.82
2023-05-11T02:15:19.718Z,989.84
2023-05-11T02:20:23.886Z,989.83
2023-05-11T02:25:28.096Z,989.78
2023-05-11T02:30:32.302Z,989.78
2023-05-11T02:35:36.411Z,989.72
2023-05-11T02:40:40.554Z,989.76
2023-05-11T02:45:42.856Z,989.71
2023-05-11T02:50:46.965Z,989.80
2023-05-11T02:55:51.147Z,989.79
2023-05-11T03:00:55.389Z,989.85
2023-05-11T03:05:59.519Z,989.91
2023-05-11T03:11:03.597Z,989.89
2023-05-11T03:16:07.919Z,989.86
2023-05-11T03:21:11.905Z,989.85
2023-05-11T03:26:16.162Z,989.84
2023-05-11T03:31:20.289Z,989.75
2023-05-11T03:36:24.414Z,989.86
2023-05-11T03:41:28.544Z,989.80
2023-05-11T03:46:32.949Z,989.81
2023-05-11T03:51:37.266Z,989.78
2023-05-11T03:56:41.101Z,989.82
2023-05-11T04:01:45.216Z,989.93
2023-05-11T04:06:49.408Z,989.85
2023-05-11T04:11:53.486Z,989.98
2023-05-11T04:16:57.701Z,989.98
2023-05-11T04:22:01.839Z,990.06
2023-05-11T04:27:06.062Z,990.13
2023-05-11T04:32:10.169Z,990.17
2023-05-11T04:37:14.363Z,990.09
2023-05-11T04:42:18.559Z,990.21
2023-05-11T04:47:22.714Z,990.19
2023-05-11T04:52:26.828Z,990.28
2023-05-11T04:57:31.009Z,990.35
2023-05-11T05:02:35.204Z,990.40
2023-05-11T05:07:39.351Z,990.40
2023-05-11T05:12:43.467Z,990.49
2023-05-11T05:17:47.857Z,990.56
2023-05-11T05:22:51.735Z,990.55
2023-05-11T05:27:56.003Z,990.65
2023-05-11T05:33:00.173Z,990.62
2023-05-11T05:38:04.262Z,990.74
2023-05-11T05:43:08.485Z,990.76
2023-05-11T05:48:12.595Z,990.72
2023-05-11T05:53:16.778Z,990.87
2023-05-11T05:58:20.996Z,991.07
2023-05-11T06:03:27.644Z,991.08
2023-05-11T06:08:29.261Z,991.15
2023-05-11T06:13:33.361Z,991.33
2023-05-11T06:18:37.697Z,991.38
2023-05-11T06:23:41.733Z,991.53
2023-05-11T06:28:46.004Z,991.78
2023-05-11T06:33:50.040Z,991.72
2023-05-11T06:38:54.196Z,992.03
2023-05-11T06:43:58.357Z,992.33
2023-05-11T06:49:02.520Z,992.33
2023-05-11T06:54:06.708Z,992.62
2023-05-11T06:59:10.887Z,992.76
2023-05-11T07:04:15.052Z,992.92
2023-05-11T07:09:19.184Z,993.05
2023-05-11T07:14:23.324Z,993.19
2023-05-11T07:19:27.608Z,993.45
2023-05-11T07:24:31.606Z,993.76
2023-05-11T07:29:35.851Z,993.95
2023-05-11T07:34:39.962Z,994.12
2023-05-11T07:39:44.157Z,994.08
2023-05-11T07:44:48.297Z,994.00
2023-05-11T07:49:52.480Z,994.31
2023-05-11T07:54:56.589Z,994.34
2023-05-11T08:00:00.972Z,994.42
2023-05-11T08:05:04.980Z,994.50
2023-05-11T08:10:09.153Z,994.44
2023-05-11T08:15:11.391Z,994.53
2023-05-11T08:20:15.537Z,994.59
2023-05-11T08:25:19.820Z,994.63
2023-05-11T08:30:23.892Z,994.59
2023-05-11T08:35:28.013Z,994.68
2023-05-11T08:40:32.154Z,994.82
2023-05-11T08:45:36.367Z,994.89
2023-05-11T08:50:40.461Z,994.88
2023-05-11T08:55:44.625Z,994.94
2023-05-11T09:00:48.795Z,994.93
2023-05-11T09:05:53.038Z,995.07
2023-05-11T09:10:57.146Z,995.09
2023-05-11T09:16:01.286Z,995.16
2023-05-11T09:21:05.410Z,995.16
2023-05-11T09:26:09.580Z,995.09
2023-05-11T09:31:13.848Z,995.12
2023-05-11T09:36:17.936Z,995.01
2023-05-11T09:41:22.162Z,995.01
2023-05-11T09:46:26.251Z,995.12
2023-05-11T09:51:30.399Z,995.13
2023-05-11T09:56:35.295Z,995.15
2023-05-11T10:01:38.733Z,995.15
2023-05-11T10:06:42.854Z,995.18
2023-05-11T10:11:47.022Z,995.26
2023-05-11T10:16:51.194Z,995.22
2023-05-11T10:21:55.360Z,995.33
2023-05-11T10:26:59.519Z,995.18
2023-05-11T10:32:03.688Z,995.08
2023-05-11T10:37:07.783Z,995.09
2023-05-11T10:42:11.980Z,995.16
2023-05-11T10:47:16.139Z,995.18
2023-05-11T10:52:20.357Z,995.14
2023-05-11T10:57:24.466Z,995.16
2023-05-11T11:02:28.632Z,995.11
2023-05-11T11:07:32.733Z,995.10
2023-05-11T11:12:36.993Z,995.10
2023-05-11T11:17:41.124Z,995.14
2023-05-11T11:22:45.239Z,995.12
2023-05-11T11:27:49.459Z,995.14
2023-05-11T11:32:53.633Z,995.18
2023-05-11T11:37:57.777Z,995.19
2023-05-11T11:43:01.943Z,995.17
2023-05-11T11:48:06.118Z,995.23
2023-05-11T11:53:10.246Z,995.26
2023-05-11T11:58:14.356Z,995.21
2023-05-11T12:03:18.653Z,995.22
2023-05-11T12:08:22.666Z,995.19
2023-05-11T12:13:26.836Z,995.15
2023-05-11T12:18:31.082Z,995.05
2023-05-11T12:23:35.128Z,995.06
2023-05-11T12:28:39.343Z,995.05
2023-05-11T12:33:43.504Z,995.02
2023-05-11T12:38:47.644Z,994.90
2023-05-11T12:43:51.819Z,994.96
2023-05-11T12:48:57.352Z,994.94
2023-05-11T12:54:00.155Z,994.93
2023-05-11T12:59:04.290Z,994.82
2023-05-11T13:04:08.515Z,994.78
2023-05-11T13:09:12.584Z,994.91
2023-05-11T13:14:16.988Z,994.93
2023-05-11T13:19:20.854Z,994.92
2023-05-11T13:24:25.048Z,994.91
2023-05-11T13:29:29.225Z,994.90
2023-05-11T13:34:33.386Z,994.88
2023-05-11T13:39:37.540Z,994.97
2023-05-11T13:44:39.820Z,994.95
2023-05-11T13:49:43.980Z,995.17
2023-05-11T13:54:48.143Z,995.29
2023-05-11T13:59:52.328Z,995.35
2023-05-11T14:04:56.477Z,995.27
2023-05-11T14:10:00.587Z,995.30
2023-05-11T14:15:02.935Z,995.19
2023-05-11T14:20:07.017Z,994.96
2023-05-11T14:25:11.166Z,994.72
2023-05-11T14:30:15.396Z,994.34
2023-05-11T14:35:19.731Z,994.30
2023-05-11T14:40:23.673Z,994.20
2023-05-11T14:45:27.816Z,993.80
2023-05-11T14:50:31.978Z,993.52
2023-05-11T14:55:36.190Z,993.50
2023-05-11T15:00:40.366Z,993.45
2023-05-11T15:05:44.531Z,993.50
2023-05-11T15:10:48.678Z,993.56
2023-05-11T15:15:52.912Z,993.49
2023-05-11T15:20:56.962Z,993.44
2023-05-11T15:26:01.128Z,993.40
2023-05-11T15:31:05.295Z,993.23
2023-05-11T15:36:09.464Z,993.15
2023-05-11T15:41:13.573Z,993.15
2023-05-11T15:46:17.820Z,993.15
2023-05-11T15:51:21.914Z,993.11
2023-05-11T15:56:26.061Z,993.18
2023-05-11T16:01:30.238Z,993.18
2023-05-11T16:06:34.430Z,993.03
2023-05-11T16:11:38.550Z,993.03
2023-05-11T16:16:42.758Z,993.07
2023-05-11T16:21:46.874Z,992.99
2023-05-11T16:26:51.033Z,992.92
2023-05-11T16:31:55.368Z,993.01
2023-05-11T16:36:59.579Z,993.02
2023-05-11T16:42:03.486Z,992.92
2023-05-11T16:47:07.682Z,992.94
2023-05-11T16:52:11.933Z,992.95
2023-05-11T16:57:16.069Z,992.98
2023-05-11T17:02:20.255Z,993.00
2023-05-11T17:07:24.348Z,992.97
2023-05-11T17:12:28.462Z,992.93
2023-05-11T17:17:32.691Z,992.87
2023-05-11T17:32:45.475Z,992.88
2023-05-11T17:37:49.308Z,992.92
2023-05-11T17:42:53.415Z,992.90
2023-05-11T17:47:57.675Z,993.08
2023-05-11T17:53:01.949Z,993.11
2023-05-11T17:58:05.901Z,993.01
2023-05-11T18:03:10.238Z,993.10
2023-05-11T18:08:14.248Z,993.00
2023-05-11T18:13:18.408Z,992.98
2023-05-11T18:18:22.693Z,992.96
2023-05-11T18:23:28.917Z,993.00
2023-05-11T18:28:30.939Z,993.07
2023-05-11T18:33:35.036Z,993.01
2023-05-11T18:38:39.219Z,993.08
2023-05-11T18:43:43.397Z,992.96
2023-05-11T18:48:47.577Z,992.99
2023-05-11T18:53:54.051Z,992.99
2023-05-11T18:58:55.863Z,992.91
2023-05-11T19:03:59.998Z,992.88
2023-05-11T19:09:04.171Z,992.91
2023-05-11T19:14:08.323Z,992.93
2023-05-11T19:19:12.585Z,993.03
2023-05-11T19:24:16.651Z,993.01
2023-05-11T19:29:20.869Z,992.96
2023-05-11T19:34:24.971Z,992.92
2023-05-11T19:39:29.122Z,993.01
2023-05-11T19:44:31.361Z,992.97
2023-05-11T19:49:35.611Z,992.89
2023-05-11T19:54:39.714Z,992.82
2023-05-11T19:59:43.836Z,992.87
2023-05-11T20:04:47.993Z,992.77
2023-05-11T20:09:52.251Z,992.74
2023-05-11T20:14:56.341Z,992.66
2023-05-11T20:20:00.511Z,992.67
2023-05-11T20:25:04.695Z,992.58
2023-05-11T20:30:08.845Z,992.65
2023-05-11T20:35:13.025Z,992.50
2023-05-11T20:45:21.307Z,992.43
2023-05-11T20:50:25.438Z,992.44
2023-05-11T20:55:29.667Z,992.43
2023-05-11T21:00:33.800Z,992.27
2023-05-11T21:05:37.962Z,992.25
2023-05-11T21:10:42.085Z,992.21
2023-05-11T21:15:46.291Z,992.12
2023-05-11T21:20:50.767Z,992.06
2023-05-11T21:25:54.629Z,991.93
2023-05-11T21:30:58.857Z,991.93
2023-05-11T21:36:04.358Z,991.87
2023-05-11T21:41:07.077Z,991.84
2023-05-11T21:46:11.256Z,991.80
2023-05-11T21:51:15.390Z,991.76
2023-05-11T21:56:19.563Z,991.63
2023-05-11T22:01:23.731Z,991.51
2023-05-11T22:06:27.871Z,991.43
2023-05-11T22:11:32.016Z,991.44
2023-05-11T22:16:36.209Z,991.44
2023-05-11T22:21:40.374Z,991.36
2023-05-11T22:26:44.635Z,991.24
2023-05-11T22:31:48.687Z,991.14
2023-05-11T22:36:52.887Z,990.99
2023-05-11T22:41:56.965Z,991.00
2023-05-11T22:47:01.144Z,990.87
2023-05-11T22:52:05.338Z,990.73
2023-05-11T22:57:09.479Z,990.69
2023-05-11T23:02:13.664Z,990.64
2023-05-11T23:07:17.757Z,990.47
2023-05-11T23:12:21.930Z,990.37
2023-05-11T23:17:26.196Z,990.35
2023-05-11T23:22:30.240Z,990.25
2023-05-11T23:27:34.433Z,990.15
2023-05-11T23:32:38.694Z,990.11
2023-05-11T23:37:42.775Z,989.92
2023-05-11T23:42:46.908Z,989.86
2023-05-11T23:47:51.163Z,989.81
2023-05-11T23:52:55.274Z,989.77
2023-05-11T23:57:59.430Z,989.59
